createdAt,value
2018-10-01T00:00:05.841Z,8.28
2018-10-01T00:02:37.995Z,9.15
2018-10-01T00:05:10.043Z,9.05
2018-10-01T00:07:42.134Z,8.30
2018-10-01T00:10:14.236Z,8.18
2018-10-01T00:12:46.319Z,8.00
2018-10-01T00:15:18.376Z,9.38
2018-10-01T00:17:50.507Z,9.73
2018-10-01T00:20:28.318Z,8.90
2018-10-01T00:23:00.397Z,9.05
2018-10-01T00:25:32.467Z,9.30
2018-10-01T00:28:04.553Z,8.90
2018-10-01T00:30:36.660Z,9.15
2018-10-01T00:33:09.336Z,9.15
2018-10-01T00:35:41.424Z,8.78
2018-10-01T00:38:13.633Z,9.10
2018-10-01T00:40:45.696Z,8.48
2018-10-01T00:43:17.958Z,8.85
2018-10-01T00:45:49.987Z,9.28
2018-10-01T00:48:22.032Z,8.98
2018-10-01T00:50:54.361Z,9.13
2018-10-01T00:53:26.402Z,9.80
2018-10-01T00:55:58.421Z,9.55
2018-10-01T00:58:30.439Z,8.98
2018-10-01T01:01:02.467Z,10.32
2018-10-01T01:03:34.589Z,8.40
2018-10-01T01:06:06.722Z,8.68
2018-10-01T01:08:38.763Z,9.38
2018-10-01T01:11:10.816Z,9.05
2018-10-01T01:13:42.871Z,8.20
2018-10-01T01:16:14.930Z,8.43
2018-10-01T01:18:46.980Z,9.25
2018-10-01T01:21:19.122Z,9.95
2018-10-01T01:23:51.468Z,9.45
2018-10-01T01:26:23.548Z,8.30
2018-10-01T01:28:55.619Z,9.40
2018-10-01T01:31:27.672Z,8.53
2018-10-01T01:33:59.822Z,8.05
2018-10-01T01:36:32.534Z,8.78
2018-10-01T01:39:07.199Z,8.45
2018-10-01T01:41:39.278Z,7.87
2018-10-01T01:44:11.383Z,8.75
2018-10-01T01:46:43.638Z,9.00
2018-10-01T01:49:15.708Z,8.45
2018-10-01T01:51:47.775Z,8.60
2018-10-01T01:54:19.932Z,8.95
2018-10-01T01:56:52.120Z,8.25
2018-10-01T01:59:24.185Z,8.38
2018-10-01T02:01:56.723Z,9.30
2018-10-01T02:04:28.769Z,9.48
2018-10-01T02:07:00.878Z,8.60
2018-10-01T02:09:32.995Z,8.60
2018-10-01T02:12:05.012Z,9.25
2018-10-01T02:14:37.080Z,9.55
2018-10-01T02:17:09.115Z,8.48
2018-10-01T02:19:41.200Z,8.75
2018-10-01T02:22:13.231Z,9.00
2018-10-01T02:24:45.389Z,9.60
2018-10-01T02:27:17.411Z,10.45
2018-10-01T02:29:49.491Z,8.15
2018-10-01T02:32:21.524Z,8.95
2018-10-01T02:34:53.549Z,9.20
2018-10-01T02:37:26.007Z,8.68
2018-10-01T02:39:58.091Z,9.28
2018-10-01T02:42:30.145Z,10.10
2018-10-01T02:45:02.211Z,8.55
2018-10-01T02:47:34.382Z,8.78
2018-10-01T02:50:06.485Z,8.23
2018-10-01T02:52:44.210Z,8.73
2018-10-01T02:55:16.267Z,9.33
2018-10-01T02:57:48.330Z,8.58
2018-10-01T03:00:20.408Z,9.28
2018-10-01T03:02:52.471Z,8.15
2018-10-01T03:05:24.729Z,7.87
2018-10-01T03:07:57.090Z,9.55
2018-10-01T03:10:29.131Z,9.43
2018-10-01T03:13:01.211Z,8.25
2018-10-01T03:15:33.309Z,8.53
2018-10-01T03:18:05.985Z,8.60
2018-10-01T03:20:38.452Z,7.60
2018-10-01T03:23:10.646Z,7.47
2018-10-01T03:25:42.724Z,8.25
2018-10-01T03:28:14.788Z,7.58
2018-10-01T03:30:46.878Z,8.13
2018-10-01T03:33:19.011Z,7.45
2018-10-01T03:35:51.167Z,8.50
2018-10-01T03:38:23.208Z,7.63
2018-10-01T03:40:55.320Z,9.10
2018-10-01T03:43:27.364Z,8.13
2018-10-01T03:45:59.386Z,9.13
2018-10-01T03:48:31.433Z,9.05
2018-10-01T03:51:03.607Z,8.68
2018-10-01T03:53:35.659Z,8.83
2018-10-01T03:56:08.001Z,8.78
2018-10-01T03:58:40.142Z,10.30
2018-10-01T04:01:12.283Z,8.28
2018-10-01T04:03:44.392Z,8.50
2018-10-01T04:06:16.476Z,8.80
2018-10-01T04:08:48.561Z,8.57
2018-10-01T04:11:26.249Z,8.20
2018-10-01T04:13:58.324Z,9.35
2018-10-01T04:16:30.370Z,9.07
2018-10-01T04:19:02.374Z,8.57
2018-10-01T04:21:34.520Z,9.30
2018-10-01T04:24:06.539Z,9.73
2018-10-01T04:26:38.652Z,9.15
2018-10-01T04:29:12.639Z,9.93
2018-10-01T04:31:45.354Z,9.17
2018-10-01T04:34:17.388Z,9.07
2018-10-01T04:36:49.457Z,8.97
2018-10-01T04:39:21.560Z,9.13
2018-10-01T04:41:53.633Z,9.60
2018-10-01T04:44:25.677Z,9.90
2018-10-01T04:46:57.793Z,10.23
2018-10-01T04:49:30.984Z,10.55
2018-10-01T04:52:03.374Z,9.40
2018-10-01T04:54:35.428Z,9.10
2018-10-01T04:57:07.479Z,10.38
2018-10-01T04:59:39.737Z,9.28
2018-10-01T05:02:11.851Z,10.13
2018-10-01T05:04:43.904Z,10.43
2018-10-01T05:07:16.106Z,9.55
2018-10-01T05:09:48.166Z,10.20
2018-10-01T05:12:26.984Z,9.80
2018-10-01T05:14:59.109Z,10.15
2018-10-01T05:17:31.250Z,11.40
2018-10-01T05:20:03.421Z,11.50
2018-10-01T05:22:35.456Z,10.50
2018-10-01T05:25:07.649Z,11.20
2018-10-01T05:27:40.328Z,12.25
2018-10-01T05:30:12.528Z,11.63
2018-10-01T05:32:44.560Z,10.85
2018-10-01T05:35:16.645Z,11.00
2018-10-01T05:37:48.941Z,11.97
2018-10-01T05:40:20.954Z,11.20
2018-10-01T05:42:52.973Z,10.60
2018-10-01T05:45:25.106Z,11.10
2018-10-01T05:47:57.183Z,11.20
2018-10-01T05:50:29.256Z,10.82
2018-10-01T05:53:01.736Z,12.30
2018-10-01T05:55:33.799Z,11.63
2018-10-01T05:58:05.926Z,11.93
2018-10-01T06:00:37.932Z,11.23
2018-10-01T06:03:09.976Z,13.00
2018-10-01T06:05:42.019Z,13.15
2018-10-01T06:08:14.063Z,12.30
2018-10-01T06:10:46.152Z,12.00
2018-10-01T06:13:18.240Z,12.30
2018-10-01T06:15:50.311Z,13.30
2018-10-01T06:18:22.349Z,11.83
2018-10-01T06:20:54.467Z,12.00
2018-10-01T06:23:26.577Z,12.40
2018-10-01T06:25:58.665Z,12.47
2018-10-01T06:28:30.728Z,12.73
2018-10-01T06:31:02.924Z,12.27
2018-10-01T06:33:34.988Z,11.87
2018-10-01T06:36:07.115Z,12.13
2018-10-01T06:38:39.103Z,10.90
2018-10-01T06:41:11.267Z,13.03
2018-10-01T06:43:43.336Z,11.10
2018-10-01T06:46:15.464Z,10.77
2018-10-01T06:48:47.516Z,11.17
2018-10-01T06:51:19.696Z,12.13
2018-10-01T06:53:51.787Z,12.67
2018-10-01T06:56:23.894Z,12.40
2018-10-01T06:58:56.044Z,10.33
2018-10-01T07:01:28.192Z,10.67
2018-10-01T07:04:00.279Z,10.60
2018-10-01T07:06:32.342Z,10.60
2018-10-01T07:09:07.667Z,10.97
2018-10-01T07:11:40.441Z,10.67
2018-10-01T07:14:12.413Z,11.43
2018-10-01T07:16:44.502Z,10.80
2018-10-01T07:19:16.517Z,10.90
2018-10-01T07:21:48.667Z,10.60
2018-10-01T07:24:20.720Z,10.50
2018-10-01T07:26:52.796Z,9.13
2018-10-01T07:29:24.869Z,10.30
2018-10-01T07:31:57.036Z,9.60
2018-10-01T07:34:29.093Z,9.47
2018-10-01T07:37:01.162Z,10.50
2018-10-01T07:39:33.365Z,9.70
2018-10-01T07:42:05.914Z,9.33
2018-10-01T07:44:38.081Z,9.77
2018-10-01T07:47:10.145Z,9.33
2018-10-01T07:49:42.200Z,8.60
2018-10-01T07:52:14.284Z,9.90
2018-10-01T07:54:46.473Z,8.77
2018-10-01T07:57:18.590Z,9.03
2018-10-01T07:59:50.691Z,8.97
2018-10-01T08:02:22.911Z,9.00
2018-10-01T08:04:55.033Z,9.70
2018-10-01T08:07:28.164Z,8.50
2018-10-01T08:10:00.230Z,8.17
2018-10-01T08:12:32.311Z,8.57
2018-10-01T08:15:04.592Z,8.63
2018-10-01T08:17:36.637Z,8.20
2018-10-01T08:20:08.787Z,8.37
2018-10-01T08:22:40.835Z,8.47
2018-10-01T08:25:12.900Z,8.23
2018-10-01T08:27:45.010Z,7.50
2018-10-01T08:30:17.077Z,8.20
2018-10-01T08:32:49.184Z,8.13
2018-10-01T08:35:21.231Z,8.33
2018-10-01T08:37:53.329Z,7.40
2018-10-01T08:40:26.280Z,7.47
2018-10-01T08:42:58.383Z,7.80
2018-10-01T08:45:30.514Z,7.90
2018-10-01T08:48:12.176Z,7.37
2018-10-01T08:50:49.735Z,8.53
2018-10-01T08:53:25.940Z,7.73
2018-10-01T08:55:58.029Z,6.30
2018-10-01T08:58:30.131Z,7.47
2018-10-01T09:01:02.250Z,7.20
2018-10-01T09:03:34.401Z,6.43
2018-10-01T09:06:06.512Z,7.90
2018-10-01T09:08:38.756Z,6.27
2018-10-01T09:11:10.941Z,6.57
2018-10-01T09:13:43.127Z,6.90
2018-10-01T09:16:15.327Z,6.47
2018-10-01T09:18:47.452Z,5.97
2018-10-01T09:21:19.618Z,5.33
2018-10-01T09:23:51.829Z,5.93
2018-10-01T09:26:23.979Z,6.20
2018-10-01T09:28:56.079Z,6.70
2018-10-01T09:31:28.153Z,5.93
2018-10-01T09:34:00.285Z,6.30
2018-10-01T09:36:32.323Z,5.60
2018-10-01T09:39:06.671Z,6.27
2018-10-01T09:41:39.564Z,6.80
2018-10-01T09:44:11.712Z,5.87
2018-10-01T09:46:43.695Z,5.80
2018-10-01T09:49:15.763Z,5.80
2018-10-01T09:51:47.912Z,5.53
2018-10-01T09:54:19.963Z,5.33
2018-10-01T09:56:52.015Z,4.60
2018-10-01T09:59:24.122Z,4.40
2018-10-01T10:01:56.427Z,4.37
2018-10-01T10:04:28.485Z,4.60
2018-10-01T10:07:01.140Z,4.63
2018-10-01T10:09:33.222Z,5.60
2018-10-01T10:12:05.276Z,4.70
2018-10-01T10:14:37.443Z,3.97
2018-10-01T10:17:09.412Z,5.93
2018-10-01T10:19:41.472Z,4.80
2018-10-01T10:22:13.647Z,3.97
2018-10-01T10:24:45.852Z,4.20
2018-10-01T10:27:17.907Z,4.43
2018-10-01T10:29:49.988Z,5.03
2018-10-01T10:32:22.155Z,4.37
2018-10-01T10:34:54.197Z,4.60
2018-10-01T10:37:26.266Z,5.33
2018-10-01T10:39:58.331Z,4.77
2018-10-01T10:42:30.401Z,4.70
2018-10-01T10:45:02.493Z,4.60
2018-10-01T10:47:34.553Z,4.37
2018-10-01T10:50:06.971Z,5.30
2018-10-01T10:52:39.007Z,4.30
2018-10-01T10:55:11.099Z,4.07
2018-10-01T10:57:43.160Z,4.10
2018-10-01T11:00:15.320Z,4.47
2018-10-01T11:02:47.381Z,3.90
2018-10-01T11:05:19.440Z,3.57
2018-10-01T11:07:51.491Z,3.67
2018-10-01T11:10:23.571Z,4.10
2018-10-01T11:12:55.666Z,4.20
2018-10-01T11:15:27.902Z,3.27
2018-10-01T11:17:59.937Z,2.77
2018-10-01T11:20:31.988Z,3.00
2018-10-01T11:23:04.168Z,3.70
2018-10-01T11:25:36.240Z,3.80
2018-10-01T11:28:08.329Z,3.33
2018-10-01T11:30:40.404Z,3.60
2018-10-01T11:33:12.484Z,3.10
2018-10-01T11:35:44.678Z,2.90
2018-10-01T11:38:16.716Z,3.20
2018-10-01T11:40:48.765Z,3.20
2018-10-01T11:43:20.853Z,2.87
2018-10-01T11:45:52.940Z,2.77
2018-10-01T11:48:24.991Z,2.90
2018-10-01T11:50:57.268Z,2.50
2018-10-01T11:53:29.309Z,3.33
2018-10-01T11:56:01.440Z,3.10
2018-10-01T11:58:33.448Z,2.60
2018-10-01T12:01:05.871Z,2.70
2018-10-01T12:03:37.956Z,2.57
2018-10-01T12:06:10.004Z,2.90
2018-10-01T12:08:42.051Z,2.60
2018-10-01T12:11:14.141Z,3.23
2018-10-01T12:13:46.284Z,3.03
2018-10-01T12:16:18.348Z,2.57
2018-10-01T12:18:50.472Z,2.93
2018-10-01T12:21:22.606Z,2.87
2018-10-01T12:23:54.643Z,2.93
2018-10-01T12:26:26.743Z,3.30
2018-10-01T12:28:59.804Z,3.30
2018-10-01T12:31:32.013Z,3.47
2018-10-01T12:34:04.077Z,3.10
2018-10-01T12:36:36.211Z,3.90
2018-10-01T12:39:09.256Z,4.10
2018-10-01T12:41:41.383Z,3.20
2018-10-01T12:44:13.441Z,3.43
2018-10-01T12:46:45.600Z,3.00
2018-10-01T12:49:17.727Z,3.40
2018-10-01T12:51:50.500Z,3.50
2018-10-01T12:54:22.412Z,5.30
2018-10-01T12:56:54.488Z,3.80
2018-10-01T12:59:26.675Z,4.90
2018-10-01T13:01:58.641Z,4.87
2018-10-01T13:04:30.735Z,4.37
2018-10-01T13:07:03.105Z,4.60
2018-10-01T13:09:35.135Z,4.83
2018-10-01T13:12:07.296Z,4.50
2018-10-01T13:14:39.300Z,5.33
2018-10-01T13:17:11.375Z,5.00
2018-10-01T13:19:43.429Z,5.60
2018-10-01T13:22:15.493Z,6.13
2018-10-01T13:24:47.600Z,5.30
2018-10-01T13:27:19.707Z,5.60
2018-10-01T13:29:51.804Z,5.60
2018-10-01T13:32:23.912Z,5.80
2018-10-01T13:34:56.012Z,6.30
2018-10-01T13:37:28.119Z,5.87
2018-10-01T13:40:00.227Z,6.37
2018-10-01T13:42:32.351Z,5.77
2018-10-01T13:45:04.383Z,6.03
2018-10-01T13:47:36.640Z,6.17
2018-10-01T13:50:08.902Z,6.00
2018-10-01T13:52:40.968Z,6.73
2018-10-01T13:55:13.078Z,6.30
2018-10-01T13:57:45.179Z,7.50
2018-10-01T14:00:17.349Z,6.70
2018-10-01T14:02:49.443Z,7.20
2018-10-01T14:05:21.537Z,7.77
2018-10-01T14:07:53.642Z,7.70
2018-10-01T14:10:25.713Z,8.17
2018-10-01T14:12:57.849Z,6.73
2018-10-01T14:15:29.879Z,7.17
2018-10-01T14:18:02.231Z,7.33
2018-10-01T14:20:34.279Z,6.57
2018-10-01T14:23:06.339Z,5.90
2018-10-01T14:25:38.381Z,6.00
2018-10-01T14:28:10.464Z,6.03
2018-10-01T14:30:42.490Z,6.30
2018-10-01T14:33:14.646Z,6.20
2018-10-01T14:35:46.719Z,6.67
2018-10-01T14:38:18.935Z,6.23
2018-10-01T14:40:50.924Z,5.20
2018-10-01T14:43:22.989Z,6.00
2018-10-01T14:45:55.012Z,5.87
2018-10-01T14:48:27.130Z,5.10
2018-10-01T14:50:59.133Z,5.10
2018-10-01T14:53:31.197Z,4.10
2018-10-01T14:56:03.300Z,3.70
2018-10-01T14:58:35.383Z,4.17
2018-10-01T15:01:07.468Z,3.63
2018-10-01T15:03:39.587Z,4.17
2018-10-01T15:06:11.719Z,4.23
2018-10-01T15:08:43.829Z,3.57
2018-10-01T15:11:15.951Z,4.00
2018-10-01T15:13:47.999Z,3.40
2018-10-01T15:16:20.121Z,3.87
2018-10-01T15:18:52.161Z,3.90
2018-10-01T15:21:24.199Z,3.60
2018-10-01T15:23:56.246Z,3.90
2018-10-01T15:26:28.303Z,4.40
2018-10-01T15:29:00.342Z,3.90
2018-10-01T15:31:32.402Z,4.23
2018-10-01T15:34:04.479Z,4.12
2018-10-01T15:36:36.569Z,4.10
2018-10-01T15:39:09.561Z,4.07
2018-10-01T15:41:41.657Z,4.40
2018-10-01T15:44:13.803Z,4.17
2018-10-01T15:46:45.805Z,3.50
2018-10-01T15:49:17.884Z,4.30
2018-10-01T15:51:50.013Z,4.20
2018-10-01T15:54:22.112Z,3.47
2018-10-01T15:56:54.177Z,3.93
2018-10-01T15:59:26.287Z,3.93
2018-10-01T16:01:58.384Z,3.60
2018-10-01T16:04:30.478Z,3.90
2018-10-01T16:07:02.649Z,4.10
2018-10-01T16:09:34.781Z,4.00
2018-10-01T16:12:06.856Z,3.53
2018-10-01T16:14:38.934Z,4.27
2018-10-01T16:17:10.996Z,3.90
2018-10-01T16:19:43.050Z,3.10
2018-10-01T16:22:15.072Z,4.37
2018-10-01T16:27:24.959Z,4.17
2018-10-01T16:29:57.120Z,3.70
2018-10-01T16:32:29.243Z,4.70
2018-10-01T16:35:01.352Z,4.77
2018-10-01T16:37:33.400Z,4.00
2018-10-01T16:40:05.484Z,4.50
2018-10-01T16:42:37.632Z,4.00
2018-10-01T16:47:47.684Z,3.63
2018-10-01T16:50:19.727Z,4.93
2018-10-01T16:52:51.847Z,3.90
2018-10-01T16:55:23.952Z,4.43
2018-10-01T16:57:56.052Z,3.80
2018-10-01T17:00:28.165Z,3.40
2018-10-01T17:03:00.310Z,3.40
2018-10-01T17:05:32.460Z,3.60
2018-10-01T17:08:04.567Z,3.70
2018-10-01T17:10:36.744Z,3.90
2018-10-01T17:13:08.857Z,4.47
2018-10-01T17:15:40.950Z,3.40
2018-10-01T17:18:13.019Z,3.10
2018-10-01T17:20:45.111Z,3.23
2018-10-01T17:23:17.192Z,3.53
2018-10-01T17:25:49.268Z,3.13
2018-10-01T17:28:21.298Z,3.93
2018-10-01T17:30:53.339Z,4.33
2018-10-01T17:33:25.382Z,4.20
2018-10-01T17:35:57.421Z,4.10
2018-10-01T17:38:29.618Z,4.07
2018-10-01T17:41:01.646Z,5.50
2018-10-01T17:43:33.786Z,5.57
2018-10-01T17:46:05.897Z,4.63
2018-10-01T17:48:37.948Z,3.50
2018-10-01T17:51:09.970Z,3.70
2018-10-01T17:53:41.995Z,3.90
2018-10-01T17:56:14.112Z,3.20
2018-10-01T17:58:46.155Z,3.27
2018-10-01T18:01:18.268Z,2.67
2018-10-01T18:03:50.368Z,2.70
2018-10-01T18:06:22.438Z,2.53
2018-10-01T18:08:54.438Z,2.27
2018-10-01T18:11:26.488Z,2.40
2018-10-01T18:13:58.507Z,2.57
2018-10-01T18:16:30.551Z,2.10
2018-10-01T18:19:02.590Z,2.53
2018-10-01T18:21:34.639Z,2.27
2018-10-01T18:24:06.711Z,2.30
2018-10-01T18:26:38.705Z,2.20
2018-10-01T18:29:10.775Z,2.67
2018-10-01T18:31:42.816Z,2.05
2018-10-01T18:34:14.883Z,2.50
2018-10-01T18:36:46.975Z,2.25
2018-10-01T18:39:21.520Z,2.40
2018-10-01T18:41:53.617Z,2.40
2018-10-01T18:44:25.657Z,2.40
2018-10-01T18:46:57.743Z,1.77
2018-10-01T18:49:29.779Z,2.00
2018-10-01T18:52:01.858Z,2.40
2018-10-01T18:54:34.141Z,1.80
2018-10-01T18:57:06.619Z,1.90
2018-10-01T18:59:38.701Z,2.27
2018-10-01T19:02:10.749Z,2.67
2018-10-01T19:04:42.831Z,2.53
2018-10-01T19:07:14.992Z,2.05
2018-10-01T19:09:47.435Z,2.60
2018-10-01T19:12:19.558Z,2.50
2018-10-01T19:14:51.603Z,1.93
2018-10-01T19:17:23.649Z,3.07
2018-10-01T19:19:55.827Z,2.67
2018-10-01T19:22:28.103Z,2.23
2018-10-01T19:25:00.163Z,3.40
2018-10-01T19:27:32.275Z,2.40
2018-10-01T19:30:05.027Z,2.30
2018-10-01T19:32:37.359Z,2.67
2018-10-01T19:35:16.977Z,2.87
2018-10-01T19:37:49.067Z,2.70
2018-10-01T19:40:21.252Z,2.57
2018-10-01T19:42:53.322Z,2.53
2018-10-01T19:45:25.408Z,2.30
2018-10-01T19:47:57.504Z,3.00
2018-10-01T19:50:29.671Z,2.45
2018-10-01T19:53:01.925Z,2.58
2018-10-01T19:55:33.924Z,2.83
2018-10-01T19:58:06.111Z,3.02
2018-10-01T20:00:38.364Z,2.77
2018-10-01T20:03:10.433Z,2.83
2018-10-01T20:05:42.490Z,2.50
2018-10-01T20:08:14.659Z,2.90
2018-10-01T20:10:46.848Z,3.30
2018-10-01T20:13:19.033Z,2.75
2018-10-01T20:15:51.157Z,3.05
2018-10-01T20:18:23.587Z,3.00
2018-10-01T20:20:55.742Z,2.90
2018-10-01T20:23:27.751Z,2.90
2018-10-01T20:25:59.840Z,3.08
2018-10-01T20:28:32.537Z,3.00
2018-10-01T20:31:04.351Z,3.12
2018-10-01T20:33:36.755Z,2.90
2018-10-01T20:36:11.230Z,3.67
2018-10-01T20:38:43.228Z,2.75
2018-10-01T20:41:15.387Z,2.65
2018-10-01T20:43:49.345Z,3.30
2018-10-01T20:46:21.507Z,3.17
2018-10-01T20:48:53.609Z,2.62
2018-10-01T20:51:26.827Z,3.10
2018-10-01T20:53:59.219Z,3.20
2018-10-01T20:56:31.277Z,3.10
2018-10-01T20:59:03.466Z,4.03
2018-10-01T21:01:35.515Z,2.83
2018-10-01T21:04:08.066Z,3.10
2018-10-01T21:06:40.115Z,3.00
2018-10-01T21:09:13.107Z,3.80
2018-10-01T21:11:45.319Z,2.80
2018-10-01T21:14:18.381Z,3.50
2018-10-01T21:16:50.394Z,3.52
2018-10-01T21:19:22.467Z,3.22
2018-10-01T21:21:54.644Z,3.15
2018-10-01T21:24:27.375Z,3.00
2018-10-01T21:26:59.592Z,3.40
2018-10-01T21:29:32.225Z,3.35
2018-10-01T21:32:04.332Z,2.95
2018-10-01T21:34:37.437Z,2.70
2018-10-01T21:37:09.492Z,3.12
2018-10-01T21:40:03.484Z,2.83
2018-10-01T21:42:35.544Z,3.05
2018-10-01T21:45:08.734Z,2.40
2018-10-01T21:47:40.835Z,3.20
2018-10-01T21:50:13.955Z,2.50
2018-10-01T21:52:46.842Z,2.52
2018-10-01T21:55:19.016Z,2.65
2018-10-01T21:57:51.088Z,2.30
2018-10-01T22:00:23.249Z,1.87
2018-10-01T22:02:55.317Z,2.10
2018-10-01T22:05:27.637Z,2.27
2018-10-01T22:07:59.714Z,1.90
2018-10-01T22:10:31.802Z,1.50
2018-10-01T22:13:03.828Z,0.90
2018-10-01T22:15:41.647Z,0.88
2018-10-01T22:18:15.707Z,0.80
2018-10-01T22:20:47.959Z,0.82
2018-10-01T22:23:20.980Z,1.05
2018-10-01T22:25:53.094Z,0.82
2018-10-01T22:28:25.181Z,0.68
2018-10-01T22:30:57.318Z,0.70
2018-10-01T22:36:08.239Z,0.80
2018-10-01T22:38:40.278Z,0.85
2018-10-01T22:41:12.382Z,0.95
2018-10-01T22:43:44.421Z,0.65
2018-10-01T22:46:16.523Z,0.65
2018-10-01T22:48:48.573Z,0.55
2018-10-01T22:51:20.639Z,0.72
2018-10-01T22:53:52.634Z,0.60
2018-10-01T22:56:24.698Z,0.70
2018-10-01T22:58:56.734Z,1.05
2018-10-01T23:01:28.884Z,0.82
2018-10-01T23:04:00.911Z,0.70
2018-10-01T23:06:32.968Z,0.70
2018-10-01T23:09:06.119Z,0.68
2018-10-01T23:11:38.142Z,0.60
2018-10-01T23:14:10.152Z,0.70
2018-10-01T23:16:42.171Z,0.85
2018-10-01T23:19:14.225Z,0.72
2018-10-01T23:21:46.290Z,0.85
2018-10-01T23:24:18.319Z,0.70
2018-10-01T23:26:50.327Z,0.90
2018-10-01T23:29:22.302Z,0.98
2018-10-01T23:31:54.323Z,0.70
2018-10-01T23:34:26.340Z,0.80
2018-10-01T23:36:58.347Z,0.95
2018-10-01T23:39:30.436Z,1.12
2018-10-01T23:42:02.718Z,1.20
2018-10-01T23:44:34.735Z,0.95
2018-10-01T23:47:06.777Z,0.90
2018-10-01T23:49:38.804Z,1.15
2018-10-01T23:52:11.117Z,0.80
2018-10-01T23:54:43.151Z,1.20
2018-10-01T23:57:15.219Z,1.15
2018-10-01T23:59:47.323Z,1.00
